Time;durP1;ratioP1;P1;durP2;ratioP2;P2;SDS_P1;SDS_P2;PMS_P1;PMS_P2;Temp;Humidity;BMP_temperature;BMP_pressure;BME280_temperature;BME280_humidity;BME280_pressure;Samples;Min_cycle;Max_cycle;Signal;HPM_P1;HPM_P2
2022/10/20 00:00:59;;;;;;;7.90;5.23;;;;;;;;;;5105089;28;20376;-29
2022/10/20 00:03:27;;;;;;;6.90;5.63;;;;;;;;;;5105974;28;20214;-31
2022/10/20 00:05:54;;;;;;;8.57;5.80;;;;;;;;;;5102424;28;20208;-32
2022/10/20 00:08:21;;;;;;;7.67;5.90;;;;;;;;;;5100334;28;20215;-32
2022/10/20 00:10:55;;;;;;;7.63;4.93;;;;;;;;;;5105517;28;20242;-32
2022/10/20 00:13:22;;;;;;;7.27;5.70;;;;;;;;;;5104408;28;20243;-29
2022/10/20 00:15:49;;;;;;;6.93;5.23;;;;;;;;;;5098601;28;20210;-31
2022/10/20 00:18:18;;;;;;;6.50;5.60;;;;;;;;;;5099930;28;20292;-30
2022/10/20 00:20:45;;;;;;;10.10;6.23;;;;;;;;;;5103548;28;20241;-32
2022/10/20 00:23:12;;;;;;;8.70;6.30;;;;;;;;;;5099755;28;20203;-32
2022/10/20 00:25:40;;;;;;;7.70;6.27;;;;;;;;;;5104857;28;20205;-32
2022/10/20 00:28:07;;;;;;;7.20;5.90;;;;;;;;;;5095895;28;20216;-31
2022/10/20 00:30:35;;;;;;;8.63;5.93;;;;;;;;;;5106505;28;20220;-32
2022/10/20 00:33:02;;;;;;;8.00;5.63;;;;;;;;;;5099163;28;20227;-31
2022/10/20 00:35:31;;;;;;;10.53;5.93;;;;;;;;;;5105903;28;20206;-29
2022/10/20 00:37:58;;;;;;;7.57;5.57;;;;;;;;;;5101614;28;20304;-30
2022/10/20 00:40:26;;;;;;;7.00;5.40;;;;;;;;;;5108852;28;20235;-31
2022/10/20 00:42:53;;;;;;;8.77;5.80;;;;;;;;;;5107477;28;20197;-32
2022/10/20 00:45:21;;;;;;;9.47;6.37;;;;;;;;;;5105935;28;20299;-34
2022/10/20 00:47:50;;;;;;;7.70;5.93;;;;;;;;;;5108271;28;20212;-32
2022/10/20 00:50:18;;;;;;;6.60;4.80;;;;;;;;;;5096873;28;20231;-33
2022/10/20 00:52:47;;;;;;;9.73;5.20;;;;;;;;;;5101873;28;20250;-33
2022/10/20 00:55:16;;;;;;;6.70;5.17;;;;;;;;;;5094056;28;20210;-34
2022/10/20 00:57:45;;;;;;;8.57;5.27;;;;;;;;;;5113221;28;20218;-31
2022/10/20 01:00:12;;;;;;;8.03;5.50;;;;;;;;;;5104010;28;20221;-32
2022/10/20 01:02:39;;;;;;;7.90;5.97;;;;;;;;;;5099454;28;20208;-32
2022/10/20 01:05:07;;;;;;;7.47;4.90;;;;;;;;;;5098269;28;20246;-33
2022/10/20 01:07:34;;;;;;;9.77;5.67;;;;;;;;;;5101765;28;20207;-32
2022/10/20 01:10:04;;;;;;;9.83;6.50;;;;;;;;;;5100394;28;20223;-31
2022/10/20 01:12:37;;;;;;;8.33;6.17;;;;;;;;;;5098195;28;20319;-34
2022/10/20 01:15:09;;;;;;;8.23;5.73;;;;;;;;;;5100038;28;20644;-33
2022/10/20 01:17:41;;;;;;;8.60;5.07;;;;;;;;;;5106865;28;20201;-31
2022/10/20 01:20:23;;;;;;;9.30;5.90;;;;;;;;;;5192676;22;20216;-31
2022/10/20 01:22:59;;;;;;;8.63;5.67;;;;;;;;;;5091408;28;20359;-29
2022/10/20 01:25:36;;;;;;;8.73;5.77;;;;;;;;;;5090780;28;20202;-31
2022/10/20 01:28:09;;;;;;;7.47;5.80;;;;;;;;;;5091915;28;20211;-30
2022/10/20 01:30:37;;;;;;;8.17;5.80;;;;;;;;;;5084491;28;20312;-29
2022/10/20 01:33:12;;;;;;;9.20;5.53;;;;;;;;;;5085460;28;20308;-28
2022/10/20 01:35:44;;;;;;;10.30;5.87;;;;;;;;;;5075029;28;20205;-32
2022/10/20 01:38:17;;;;;;;12.13;6.70;;;;;;;;;;5085143;28;20211;-32
2022/10/20 01:40:46;;;;;;;7.50;6.23;;;;;;;;;;5088635;28;20217;-30
2022/10/20 01:43:16;;;;;;;8.83;6.83;;;;;;;;;;5084085;28;20207;-30
2022/10/20 01:45:44;;;;;;;8.53;6.50;;;;;;;;;;5077481;28;20224;-31
2022/10/20 01:48:15;;;;;;;8.07;5.90;;;;;;;;;;5087076;28;20248;-30
2022/10/20 01:50:42;;;;;;;6.33;4.93;;;;;;;;;;5084478;28;20221;-30
2022/10/20 01:53:10;;;;;;;10.67;5.50;;;;;;;;;;5083243;28;20223;-32
2022/10/20 01:55:37;;;;;;;10.33;6.53;;;;;;;;;;5072599;28;20220;-30
2022/10/20 01:58:16;;;;;;;7.37;5.50;;;;;;;;;;5078167;28;20205;-32
2022/10/20 02:00:45;;;;;;;7.67;6.03;;;;;;;;;;5087560;28;20260;-32
2022/10/20 02:03:22;;;;;;;6.90;5.03;;;;;;;;;;5081338;28;20221;-31
2022/10/20 02:05:57;;;;;;;8.43;5.40;;;;;;;;;;5098236;28;20212;-33
2022/10/20 02:08:29;;;;;;;7.73;5.53;;;;;;;;;;5083645;28;20196;-32
2022/10/20 02:10:57;;;;;;;7.30;5.33;;;;;;;;;;5083243;28;20224;-31
2022/10/20 02:13:26;;;;;;;9.77;5.97;;;;;;;;;;5085074;28;20221;-30
2022/10/20 02:15:59;;;;;;;7.60;5.13;;;;;;;;;;5084980;28;20215;-33
2022/10/20 02:18:27;;;;;;;6.47;5.13;;;;;;;;;;5084001;28;20200;-32
2022/10/20 02:20:56;;;;;;;7.53;5.67;;;;;;;;;;5088399;28;20232;-30
2022/10/20 02:23:23;;;;;;;7.80;5.80;;;;;;;;;;5079245;28;20213;-33
2022/10/20 02:26:03;;;;;;;7.73;5.40;;;;;;;;;;5090626;28;20287;-30
2022/10/20 02:28:31;;;;;;;7.53;5.20;;;;;;;;;;5095118;28;20200;-33
2022/10/20 02:31:00;;;;;;;7.67;5.73;;;;;;;;;;5084391;28;20229;-32
2022/10/20 02:33:27;;;;;;;7.40;5.40;;;;;;;;;;5072710;28;20232;-34
2022/10/20 02:35:57;;;;;;;8.63;6.23;;;;;;;;;;5082422;28;20228;-30
2022/10/20 02:38:24;;;;;;;8.93;6.77;;;;;;;;;;5077515;28;20198;-33
2022/10/20 02:40:51;;;;;;;12.70;7.40;;;;;;;;;;5085741;28;20229;-32
2022/10/20 02:43:18;;;;;;;7.70;5.70;;;;;;;;;;5077843;28;20200;-31
2022/10/20 02:45:45;;;;;;;7.47;6.10;;;;;;;;;;5091449;28;20204;-29
2022/10/20 02:48:14;;;;;;;8.53;6.30;;;;;;;;;;5091472;28;20434;-28
2022/10/20 02:50:41;;;;;;;9.20;6.40;;;;;;;;;;5093009;28;20231;-32
2022/10/20 02:53:08;;;;;;;7.20;5.07;;;;;;;;;;5087726;28;20220;-29
2022/10/20 02:55:35;;;;;;;8.30;6.07;;;;;;;;;;5096288;28;20212;-29
2022/10/20 02:58:03;;;;;;;12.57;6.97;;;;;;;;;;5096169;28;20204;-31
2022/10/20 03:00:30;;;;;;;8.77;6.13;;;;;;;;;;5093703;28;20232;-33
2022/10/20 03:02:58;;;;;;;10.70;7.33;;;;;;;;;;5093199;28;20198;-29
2022/10/20 03:05:28;;;;;;;8.53;6.27;;;;;;;;;;5088946;28;20201;-31
2022/10/20 03:07:55;;;;;;;9.17;5.70;;;;;;;;;;5089685;28;20205;-31
2022/10/20 03:10:23;;;;;;;8.30;5.37;;;;;;;;;;5083975;28;20249;-33
2022/10/20 03:12:50;;;;;;;10.77;6.50;;;;;;;;;;5096439;28;20224;-31
2022/10/20 03:15:17;;;;;;;8.63;5.60;;;;;;;;;;5080963;28;20197;-29
2022/10/20 03:17:45;;;;;;;8.17;6.13;;;;;;;;;;5077850;28;20209;-30
2022/10/20 03:20:12;;;;;;;8.87;6.13;;;;;;;;;;5078106;28;20229;-33
2022/10/20 03:22:40;;;;;;;9.10;6.10;;;;;;;;;;5087261;28;20208;-31
2022/10/20 03:25:08;;;;;;;7.27;5.60;;;;;;;;;;5087204;28;20292;-32
2022/10/20 03:27:35;;;;;;;7.17;5.33;;;;;;;;;;5073041;28;20193;-32
2022/10/20 03:30:02;;;;;;;6.67;5.00;;;;;;;;;;5083758;28;20221;-29
2022/10/20 03:32:29;;;;;;;8.57;6.27;;;;;;;;;;5082050;28;20219;-32
2022/10/20 03:34:56;;;;;;;6.77;5.27;;;;;;;;;;5092819;28;20231;-30
2022/10/20 03:37:24;;;;;;;7.03;5.73;;;;;;;;;;5083805;28;20205;-31
2022/10/20 03:39:52;;;;;;;7.83;5.83;;;;;;;;;;5091742;28;20276;-32
2022/10/20 03:42:19;;;;;;;9.23;6.23;;;;;;;;;;5085835;28;20210;-31
2022/10/20 03:44:46;;;;;;;9.53;7.33;;;;;;;;;;5081981;28;20201;-31
2022/10/20 03:47:14;;;;;;;8.63;6.10;;;;;;;;;;5083679;28;20292;-28
2022/10/20 03:49:41;;;;;;;9.03;6.10;;;;;;;;;;5079539;28;20201;-34
2022/10/20 03:52:08;;;;;;;8.23;6.47;;;;;;;;;;5091683;28;20213;-28
2022/10/20 03:54:36;;;;;;;8.57;6.73;;;;;;;;;;5091830;28;20231;-30
2022/10/20 03:57:04;;;;;;;7.50;5.83;;;;;;;;;;5092087;28;20201;-29
2022/10/20 03:59:32;;;;;;;9.27;6.90;;;;;;;;;;5094382;28;20219;-32
2022/10/20 04:01:59;;;;;;;13.37;6.10;;;;;;;;;;5084330;28;20257;-30
2022/10/20 04:04:26;;;;;;;7.47;5.87;;;;;;;;;;5082455;28;20212;-32
2022/10/20 04:06:53;;;;;;;10.37;7.03;;;;;;;;;;5072631;28;20209;-33
2022/10/20 04:09:20;;;;;;;14.17;8.07;;;;;;;;;;5093365;28;20227;-32
2022/10/20 04:11:47;;;;;;;16.93;8.10;;;;;;;;;;5088285;28;20224;-33
2022/10/20 04:14:16;;;;;;;11.00;7.20;;;;;;;;;;5079828;28;20253;-32
2022/10/20 04:16:43;;;;;;;15.03;8.47;;;;;;;;;;5086007;28;20211;-30
2022/10/20 04:19:10;;;;;;;14.03;7.40;;;;;;;;;;5084434;28;20208;-34
2022/10/20 04:21:37;;;;;;;12.43;7.63;;;;;;;;;;5089746;28;20237;-32
2022/10/20 04:24:06;;;;;;;13.10;8.17;;;;;;;;;;5090736;28;20201;-29
2022/10/20 04:26:33;;;;;;;11.77;7.07;;;;;;;;;;5077315;28;20205;-31
2022/10/20 04:29:01;;;;;;;14.00;7.93;;;;;;;;;;5090966;28;20236;-28
2022/10/20 04:31:44;;;;;;;10.93;7.73;;;;;;;;;;5085711;28;20247;-32
2022/10/20 04:34:11;;;;;;;15.97;8.90;;;;;;;;;;5088743;28;20220;-29
2022/10/20 04:36:38;;;;;;;14.70;8.60;;;;;;;;;;5091269;28;20205;-30
2022/10/20 04:39:24;;;;;;;12.30;8.13;;;;;;;;;;5089715;28;20203;-30
2022/10/20 04:41:51;;;;;;;12.23;8.40;;;;;;;;;;5083057;28;20197;-30
2022/10/20 04:44:18;;;;;;;10.73;7.93;;;;;;;;;;5083786;28;20294;-30
2022/10/20 04:46:47;;;;;;;11.77;8.13;;;;;;;;;;5080385;28;20205;-30
2022/10/20 04:49:14;;;;;;;12.40;7.80;;;;;;;;;;5081226;28;20204;-30
2022/10/20 04:51:41;;;;;;;12.00;7.83;;;;;;;;;;5087084;28;20220;-35
2022/10/20 04:54:09;;;;;;;14.43;8.13;;;;;;;;;;5093056;28;20221;-30
2022/10/20 04:56:36;;;;;;;11.77;7.50;;;;;;;;;;5080117;28;20239;-32
2022/10/20 04:59:03;;;;;;;12.00;7.50;;;;;;;;;;5090362;28;20208;-32
2022/10/20 05:01:31;;;;;;;12.03;6.90;;;;;;;;;;5092288;28;20225;-33
2022/10/20 05:04:00;;;;;;;11.43;7.70;;;;;;;;;;5090861;28;20200;-33
2022/10/20 05:06:28;;;;;;;12.37;8.30;;;;;;;;;;5095826;28;20201;-30
2022/10/20 05:08:58;;;;;;;13.90;8.47;;;;;;;;;;5093301;28;20205;-31
2022/10/20 05:11:26;;;;;;;9.90;6.97;;;;;;;;;;5089080;28;20227;-34
2022/10/20 05:13:53;;;;;;;11.73;8.03;;;;;;;;;;5075966;28;20221;-33
2022/10/20 05:16:20;;;;;;;12.53;7.23;;;;;;;;;;5088534;28;20219;-33
2022/10/20 05:19:03;;;;;;;12.20;7.33;;;;;;;;;;5084256;28;20233;-31
2022/10/20 05:21:31;;;;;;;10.43;6.47;;;;;;;;;;5074578;28;20236;-29
2022/10/20 05:23:59;;;;;;;12.23;7.90;;;;;;;;;;5086955;28;20387;-32
2022/10/20 05:26:27;;;;;;;10.47;6.83;;;;;;;;;;5084555;28;20225;-30
2022/10/20 05:28:54;;;;;;;8.13;6.07;;;;;;;;;;5086294;28;20209;-31
2022/10/20 05:31:22;;;;;;;11.03;7.47;;;;;;;;;;5080661;28;20231;-28
2022/10/20 05:33:50;;;;;;;11.17;6.90;;;;;;;;;;5089242;28;20227;-30
2022/10/20 05:36:20;;;;;;;9.67;6.57;;;;;;;;;;5077859;28;20240;-29
2022/10/20 05:38:47;;;;;;;9.07;6.40;;;;;;;;;;5078319;28;20224;-32
2022/10/20 05:41:15;;;;;;;10.17;7.13;;;;;;;;;;5081558;28;20216;-34
2022/10/20 05:43:42;;;;;;;9.00;6.33;;;;;;;;;;5083087;28;20224;-32
2022/10/20 05:46:10;;;;;;;13.23;7.00;;;;;;;;;;5090077;28;20197;-30
2022/10/20 05:48:37;;;;;;;10.27;6.80;;;;;;;;;;5084641;28;20201;-32
2022/10/20 05:51:11;;;;;;;10.70;6.73;;;;;;;;;;5096977;28;20310;-32
2022/10/20 05:53:46;;;;;;;13.30;7.30;;;;;;;;;;5084262;28;20265;-30
2022/10/20 05:56:13;;;;;;;9.60;6.77;;;;;;;;;;5092386;28;20208;-32
2022/10/20 05:58:42;;;;;;;9.60;6.97;;;;;;;;;;5078251;28;20205;-31
2022/10/20 06:01:10;;;;;;;10.30;6.47;;;;;;;;;;5092319;28;20228;-33
2022/10/20 06:03:38;;;;;;;6.77;5.77;;;;;;;;;;5086124;28;20265;-27
2022/10/20 06:06:05;;;;;;;9.67;6.53;;;;;;;;;;5083207;28;20204;-29
2022/10/20 06:08:33;;;;;;;8.40;5.90;;;;;;;;;;5084726;28;20207;-30
2022/10/20 06:11:04;;;;;;;8.20;6.37;;;;;;;;;;5083634;28;20246;-33
2022/10/20 06:13:31;;;;;;;7.80;6.17;;;;;;;;;;5079838;28;20201;-35
2022/10/20 06:16:02;;;;;;;8.67;6.47;;;;;;;;;;5086926;28;20205;-30
2022/10/20 06:18:29;;;;;;;8.27;6.30;;;;;;;;;;5088828;28;20201;-28
2022/10/20 06:20:59;;;;;;;8.43;6.03;;;;;;;;;;5086077;28;20246;-30
2022/10/20 06:23:26;;;;;;;9.53;6.43;;;;;;;;;;5092059;28;21724;-29
2022/10/20 06:25:54;;;;;;;9.67;6.43;;;;;;;;;;5091087;28;20246;-32
2022/10/20 06:28:25;;;;;;;7.53;5.77;;;;;;;;;;5083501;28;20201;-31
2022/10/20 06:30:52;;;;;;;7.30;5.37;;;;;;;;;;5093267;28;20315;-31
2022/10/20 06:33:19;;;;;;;8.63;6.20;;;;;;;;;;5084153;28;20250;-33
2022/10/20 06:35:47;;;;;;;8.23;5.87;;;;;;;;;;5078467;28;20212;-30
2022/10/20 06:38:16;;;;;;;8.07;6.13;;;;;;;;;;5089023;28;20275;-29
2022/10/20 06:40:44;;;;;;;7.17;5.87;;;;;;;;;;5083721;28;20221;-32
2022/10/20 06:43:11;;;;;;;6.83;5.77;;;;;;;;;;5099577;28;20242;-29
2022/10/20 06:45:40;;;;;;;7.10;5.87;;;;;;;;;;5077030;28;20207;-33
2022/10/20 06:48:07;;;;;;;13.77;5.97;;;;;;;;;;5075997;28;20240;-30
2022/10/20 06:50:34;;;;;;;8.63;6.37;;;;;;;;;;5097098;28;20266;-32
2022/10/20 06:53:01;;;;;;;9.37;6.50;;;;;;;;;;5091500;28;20461;-31
2022/10/20 06:55:29;;;;;;;8.07;6.17;;;;;;;;;;5091978;28;20221;-31
2022/10/20 06:57:56;;;;;;;8.57;5.50;;;;;;;;;;5096608;28;20238;-30
2022/10/20 07:00:25;;;;;;;6.50;5.23;;;;;;;;;;5082664;28;20233;-30
2022/10/20 07:02:54;;;;;;;7.23;5.27;;;;;;;;;;5087340;28;20204;-32
2022/10/20 07:05:21;;;;;;;7.77;6.00;;;;;;;;;;5091136;28;20204;-33
2022/10/20 07:07:49;;;;;;;13.23;7.10;;;;;;;;;;5087928;28;20280;-33
2022/10/20 07:10:16;;;;;;;6.57;5.43;;;;;;;;;;5083011;28;20270;-30
2022/10/20 07:12:43;;;;;;;8.27;5.43;;;;;;;;;;5085128;28;20208;-31
2022/10/20 07:15:11;;;;;;;6.97;6.27;;;;;;;;;;5084202;28;20270;-32
2022/10/20 07:17:38;;;;;;;6.60;5.03;;;;;;;;;;5074164;28;20290;-33
2022/10/20 07:20:07;;;;;;;6.10;5.23;;;;;;;;;;5086490;28;20226;-30
2022/10/20 07:25:05;;;;;;;6.73;4.90;;;;;;;;;;5067458;28;20217;-33
2022/10/20 07:27:33;;;;;;;7.47;5.60;;;;;;;;;;5067126;28;20276;-33
2022/10/20 07:30:00;;;;;;;6.37;4.53;;;;;;;;;;5065959;28;20234;-32
2022/10/20 07:32:27;;;;;;;7.20;4.70;;;;;;;;;;5055192;28;20275;-33
2022/10/20 07:34:54;;;;;;;6.83;4.43;;;;;;;;;;5051417;28;20223;-29
2022/10/20 07:37:23;;;;;;;7.73;5.00;;;;;;;;;;5051458;28;20206;-33
2022/10/20 07:39:50;;;;;;;6.47;4.67;;;;;;;;;;5051647;28;20253;-28
2022/10/20 07:42:17;;;;;;;7.13;5.40;;;;;;;;;;5045564;28;20293;-32
2022/10/20 07:44:44;;;;;;;5.90;5.30;;;;;;;;;;5041534;28;20206;-31
2022/10/20 07:47:12;;;;;;;6.67;5.00;;;;;;;;;;5061446;28;20211;-29
2022/10/20 07:49:39;;;;;;;7.30;4.13;;;;;;;;;;5041870;28;20211;-29
2022/10/20 07:52:06;;;;;;;5.03;4.20;;;;;;;;;;5047284;28;20210;-32
2022/10/20 07:54:35;;;;;;;6.83;4.40;;;;;;;;;;5052430;28;20312;-30
2022/10/20 07:57:02;;;;;;;8.33;4.60;;;;;;;;;;5048632;28;20211;-34
2022/10/20 07:59:30;;;;;;;4.97;4.47;;;;;;;;;;5049245;28;20216;-33
2022/10/20 08:01:58;;;;;;;5.60;4.83;;;;;;;;;;5068940;28;20208;-30
2022/10/20 08:04:26;;;;;;;5.33;4.43;;;;;;;;;;5054545;28;20190;-30
2022/10/20 08:06:53;;;;;;;5.37;4.50;;;;;;;;;;5054452;28;20251;-33
2022/10/20 08:09:20;;;;;;;6.83;4.67;;;;;;;;;;5052049;28;20204;-32
2022/10/20 08:11:49;;;;;;;4.67;3.20;;;;;;;;;;5048512;28;20321;-29
2022/10/20 08:14:16;;;;;;;6.03;4.33;;;;;;;;;;5044959;28;20226;-32
2022/10/20 08:16:43;;;;;;;6.07;4.50;;;;;;;;;;5048724;28;20245;-29
2022/10/20 08:19:11;;;;;;;5.23;3.97;;;;;;;;;;5042593;28;20198;-32
2022/10/20 08:21:40;;;;;;;4.90;4.23;;;;;;;;;;5058805;28;20239;-31
2022/10/20 08:24:07;;;;;;;4.73;3.90;;;;;;;;;;5053921;28;20222;-29
2022/10/20 08:26:37;;;;;;;4.37;3.97;;;;;;;;;;5047271;28;20261;-33
2022/10/20 08:29:08;;;;;;;5.03;4.03;;;;;;;;;;5042152;28;20207;-33
2022/10/20 08:31:35;;;;;;;6.73;4.67;;;;;;;;;;5064588;28;20221;-31
2022/10/20 08:34:03;;;;;;;5.00;4.33;;;;;;;;;;5060251;28;20227;-30
2022/10/20 08:36:30;;;;;;;5.13;4.27;;;;;;;;;;5061677;28;20265;-30
2022/10/20 08:39:02;;;;;;;4.87;4.10;;;;;;;;;;5060097;28;20202;-33
2022/10/20 08:41:32;;;;;;;6.73;5.10;;;;;;;;;;5049176;28;20229;-32
2022/10/20 08:44:01;;;;;;;5.83;4.43;;;;;;;;;;5060086;28;20205;-31
2022/10/20 08:46:32;;;;;;;5.13;4.10;;;;;;;;;;5063691;28;20205;-31
2022/10/20 08:49:00;;;;;;;6.90;3.80;;;;;;;;;;5045258;28;20207;-28
2022/10/20 08:51:28;;;;;;;5.57;4.20;;;;;;;;;;5049553;28;20230;-33
2022/10/20 08:53:57;;;;;;;7.37;4.20;;;;;;;;;;5052447;28;20228;-34
2022/10/20 08:56:28;;;;;;;6.67;4.20;;;;;;;;;;5049205;28;20321;-42
2022/10/20 08:58:56;;;;;;;5.43;3.90;;;;;;;;;;5042008;28;20293;-32
2022/10/20 09:01:24;;;;;;;9.63;4.03;;;;;;;;;;5057842;28;20217;-30
2022/10/20 09:03:55;;;;;;;3.53;3.23;;;;;;;;;;5050347;28;20213;-33
2022/10/20 09:06:23;;;;;;;4.10;3.70;;;;;;;;;;5053595;28;20206;-30
2022/10/20 09:08:51;;;;;;;4.07;3.60;;;;;;;;;;5061806;28;20205;-31
2022/10/20 09:11:20;;;;;;;6.63;4.00;;;;;;;;;;5049332;28;20228;-32
2022/10/20 09:13:47;;;;;;;4.93;3.27;;;;;;;;;;5046170;28;20245;-34
2022/10/20 09:16:19;;;;;;;5.53;3.57;;;;;;;;;;5062970;28;20312;-33
2022/10/20 09:18:46;;;;;;;5.53;3.63;;;;;;;;;;5048696;28;20201;-29
2022/10/20 09:21:17;;;;;;;5.47;4.40;;;;;;;;;;5048007;28;20308;-31
2022/10/20 09:23:45;;;;;;;4.07;3.67;;;;;;;;;;5051289;28;20326;-32
2022/10/20 09:26:14;;;;;;;4.03;3.63;;;;;;;;;;5049499;28;20256;-34
2022/10/20 09:28:41;;;;;;;6.03;4.00;;;;;;;;;;5040446;28;20205;-32
2022/10/20 09:31:21;;;;;;;4.10;3.70;;;;;;;;;;5059452;28;20249;-31
2022/10/20 09:33:48;;;;;;;4.83;4.37;;;;;;;;;;5036506;28;20198;-31
2022/10/20 09:36:17;;;;;;;4.43;4.03;;;;;;;;;;5044503;28;20221;-31
2022/10/20 09:38:45;;;;;;;4.93;4.40;;;;;;;;;;5060567;28;20208;-29
2022/10/20 09:41:14;;;;;;;4.10;3.70;;;;;;;;;;5046537;28;20228;-32
2022/10/20 09:43:48;;;;;;;7.33;3.87;;;;;;;;;;5046097;28;20212;-33
2022/10/20 09:46:18;;;;;;;4.80;4.30;;;;;;;;;;5053754;28;20255;-30
2022/10/20 09:48:47;;;;;;;7.57;4.50;;;;;;;;;;5045249;28;20202;-32
2022/10/20 09:51:15;;;;;;;4.47;4.07;;;;;;;;;;5047788;28;20214;-32
2022/10/20 09:53:50;;;;;;;4.53;4.13;;;;;;;;;;5054352;28;20226;-33
2022/10/20 09:56:24;;;;;;;4.60;3.83;;;;;;;;;;5048751;28;20270;-30
2022/10/20 09:58:51;;;;;;;4.87;3.63;;;;;;;;;;5044338;28;20205;-33
2022/10/20 10:01:18;;;;;;;4.37;3.97;;;;;;;;;;5049943;28;20316;-33
2022/10/20 10:03:46;;;;;;;5.20;3.63;;;;;;;;;;5041646;28;20255;-29
2022/10/20 10:06:21;;;;;;;5.17;4.10;;;;;;;;;;5040638;28;20202;-31
2022/10/20 10:08:50;;;;;;;3.83;3.43;;;;;;;;;;5048761;28;20201;-34
2022/10/20 10:11:18;;;;;;;5.87;4.33;;;;;;;;;;5043108;28;20253;-30
2022/10/20 10:13:46;;;;;;;5.50;4.80;;;;;;;;;;5048386;28;20201;-32
2022/10/20 10:16:15;;;;;;;7.00;4.33;;;;;;;;;;5049886;28;20214;-30
2022/10/20 10:18:44;;;;;;;4.20;3.80;;;;;;;;;;5039204;28;20218;-31
2022/10/20 10:21:12;;;;;;;5.17;4.53;;;;;;;;;;5043847;28;20229;-33
2022/10/20 10:23:52;;;;;;;5.23;4.60;;;;;;;;;;5055849;28;20210;-33
2022/10/20 10:26:41;;;;;;;6.17;4.73;;;;;;;;;;5045830;28;20205;-33
2022/10/20 10:29:15;;;;;;;5.57;4.30;;;;;;;;;;5042553;28;20220;-31
2022/10/20 10:31:46;;;;;;;6.00;4.47;;;;;;;;;;5055643;28;20225;-35
2022/10/20 10:34:40;;;;;;;5.93;4.00;;;;;;;;;;5043091;28;20198;-34
2022/10/20 10:37:11;;;;;;;6.93;4.07;;;;;;;;;;5014469;28;20229;-30
2022/10/20 10:39:39;;;;;;;6.20;4.33;;;;;;;;;;5048469;28;20218;-34
2022/10/20 10:42:14;;;;;;;5.97;4.57;;;;;;;;;;5043588;28;20202;-32
2022/10/20 10:44:45;;;;;;;6.57;4.37;;;;;;;;;;5057275;28;20211;-30
2022/10/20 10:47:24;;;;;;;5.63;4.20;;;;;;;;;;5050750;28;20198;-34
2022/10/20 10:49:58;;;;;;;4.33;3.93;;;;;;;;;;5041327;28;20235;-34
2022/10/20 10:52:32;;;;;;;5.07;3.97;;;;;;;;;;5051992;28;20213;-28
2022/10/20 10:55:06;;;;;;;4.57;4.17;;;;;;;;;;5048641;28;20229;-33
2022/10/20 10:57:39;;;;;;;4.50;4.10;;;;;;;;;;5043886;28;20209;-32
2022/10/20 11:00:11;;;;;;;4.70;4.30;;;;;;;;;;5046652;28;20217;-32
2022/10/20 11:02:53;;;;;;;5.23;4.40;;;;;;;;;;5048428;28;20208;-32
2022/10/20 11:05:38;;;;;;;6.40;4.33;;;;;;;;;;5042583;28;20205;-31
2022/10/20 11:08:12;;;;;;;5.10;4.00;;;;;;;;;;5048304;28;20216;-32
2022/10/20 11:10:46;;;;;;;5.97;4.43;;;;;;;;;;5051716;28;20291;-32
2022/10/20 11:13:19;;;;;;;4.40;4.00;;;;;;;;;;5046583;28;20305;-31
2022/10/20 11:15:52;;;;;;;9.50;4.50;;;;;;;;;;5048807;28;20222;-33
2022/10/20 11:18:31;;;;;;;8.33;4.50;;;;;;;;;;5053511;28;20216;-30
2022/10/20 11:21:01;;;;;;;17.13;5.07;;;;;;;;;;5049389;28;20360;-31
2022/10/20 11:23:42;;;;;;;5.20;4.43;;;;;;;;;;5062693;28;20208;-31
2022/10/20 11:26:14;;;;;;;6.93;4.27;;;;;;;;;;5049029;28;20252;-34
2022/10/20 11:28:44;;;;;;;5.77;4.17;;;;;;;;;;5042413;28;20213;-31
2022/10/20 11:31:17;;;;;;;6.07;4.83;;;;;;;;;;5057366;28;20235;-31
2022/10/20 11:33:46;;;;;;;5.67;4.47;;;;;;;;;;5052429;28;20209;-31
2022/10/20 11:36:17;;;;;;;5.90;4.63;;;;;;;;;;5045752;28;20228;-32
2022/10/20 11:38:47;;;;;;;13.27;4.50;;;;;;;;;;5052224;28;20206;-31
2022/10/20 11:41:18;;;;;;;6.90;4.97;;;;;;;;;;5044217;28;20313;-31
2022/10/20 11:43:49;;;;;;;6.20;4.53;;;;;;;;;;5056013;28;20229;-33
2022/10/20 11:46:19;;;;;;;4.90;4.40;;;;;;;;;;5057023;28;20312;-33
2022/10/20 11:48:48;;;;;;;6.43;4.80;;;;;;;;;;5040395;28;20288;-30
2022/10/20 11:51:26;;;;;;;9.87;4.80;;;;;;;;;;5045738;28;20500;-32
2022/10/20 11:54:02;;;;;;;8.17;4.70;;;;;;;;;;5056338;28;20263;-30
2022/10/20 11:56:39;;;;;;;18.30;4.27;;;;;;;;;;5046907;28;20265;-34
2022/10/20 11:59:19;;;;;;;5.97;4.20;;;;;;;;;;5049199;28;20207;-33
2022/10/20 12:01:58;;;;;;;5.37;4.87;;;;;;;;;;5057281;28;20231;-35
2022/10/20 12:04:37;;;;;;;5.37;4.80;;;;;;;;;;5040747;28;20208;-34
2022/10/20 12:07:24;;;;;;;4.50;4.00;;;;;;;;;;5052179;28;20205;-33
2022/10/20 12:09:58;;;;;;;6.43;5.03;;;;;;;;;;5050684;28;20232;-34
2022/10/20 12:12:31;;;;;;;8.17;4.60;;;;;;;;;;5050181;28;20205;-32
2022/10/20 12:15:00;;;;;;;5.10;4.60;;;;;;;;;;5060236;28;20211;-35
2022/10/20 12:17:37;;;;;;;5.13;4.63;;;;;;;;;;5053626;28;20321;-34
2022/10/20 12:20:23;;;;;;;5.60;4.07;;;;;;;;;;5036506;28;20229;-33
2022/10/20 12:22:51;;;;;;;5.87;4.20;;;;;;;;;;5050530;28;20201;-32
2022/10/20 12:25:23;;;;;;;5.50;4.17;;;;;;;;;;5045637;28;20320;-33
2022/10/20 12:28:06;;;;;;;5.70;5.03;;;;;;;;;;5044282;28;20470;-32
2022/10/20 12:30:45;;;;;;;8.53;4.40;;;;;;;;;;5043512;28;20241;-30
2022/10/20 12:33:19;;;;;;;6.37;5.03;;;;;;;;;;5034787;28;20233;-33
2022/10/20 12:36:04;;;;;;;6.50;4.80;;;;;;;;;;5044246;28;20258;-30
2022/10/20 12:38:31;;;;;;;7.40;4.57;;;;;;;;;;5045714;28;20217;-35
2022/10/20 12:41:00;;;;;;;5.70;5.10;;;;;;;;;;5045902;28;20218;-32
2022/10/20 12:43:29;;;;;;;8.20;5.20;;;;;;;;;;5043894;28;20233;-31
2022/10/20 12:46:00;;;;;;;7.50;5.13;;;;;;;;;;5045991;28;20191;-32
2022/10/20 12:48:27;;;;;;;8.57;5.27;;;;;;;;;;5047741;28;20206;-33
2022/10/20 12:51:02;;;;;;;6.00;4.80;;;;;;;;;;5046647;28;20256;-33
2022/10/20 12:53:33;;;;;;;5.63;5.10;;;;;;;;;;5055493;28;20198;-34
2022/10/20 12:56:01;;;;;;;5.93;5.33;;;;;;;;;;5042619;28;20226;-29
2022/10/20 12:58:29;;;;;;;6.23;5.30;;;;;;;;;;5046704;28;20287;-31
2022/10/20 13:01:07;;;;;;;8.47;4.50;;;;;;;;;;5045378;28;20221;-33
2022/10/20 13:03:38;;;;;;;8.57;7.60;;;;;;;;;;5038943;28;20201;-31
2022/10/20 13:06:21;;;;;;;10.33;5.77;;;;;;;;;;5047147;28;20197;-32
2022/10/20 13:09:11;;;;;;;5.47;4.67;;;;;;;;;;5044394;28;20202;-32
2022/10/20 13:11:44;;;;;;;8.03;5.67;;;;;;;;;;5040049;28;20235;-33
2022/10/20 13:14:22;;;;;;;7.23;5.50;;;;;;;;;;5046618;28;20201;-32
2022/10/20 13:17:18;;;;;;;7.13;4.93;;;;;;;;;;5054606;28;20241;-33
2022/10/20 13:19:58;;;;;;;6.43;4.90;;;;;;;;;;5048190;28;20236;-28
2022/10/20 13:22:38;;;;;;;7.10;4.80;;;;;;;;;;5054841;28;20650;-32
2022/10/20 13:25:11;;;;;;;7.63;5.30;;;;;;;;;;5064017;28;20198;-31
2022/10/20 13:27:39;;;;;;;5.90;5.30;;;;;;;;;;5057468;28;20276;-32
2022/10/20 13:30:09;;;;;;;7.47;5.60;;;;;;;;;;5091181;22;20235;-33
2022/10/20 13:32:44;;;;;;;7.77;5.53;;;;;;;;;;5074978;28;20275;-33
2022/10/20 13:35:20;;;;;;;9.67;6.00;;;;;;;;;;5075562;28;20204;-28
2022/10/20 13:38:01;;;;;;;9.20;6.37;;;;;;;;;;5077050;28;20224;-34
2022/10/20 13:40:34;;;;;;;8.47;6.10;;;;;;;;;;5066892;28;20232;-32
2022/10/20 13:43:19;;;;;;;9.20;5.90;;;;;;;;;;5038777;28;20252;-33
2022/10/20 13:45:52;;;;;;;9.20;5.83;;;;;;;;;;5041662;28;20210;-29
2022/10/20 13:48:33;;;;;;;8.77;5.93;;;;;;;;;;5036773;28;20197;-30
2022/10/20 13:51:09;;;;;;;9.17;6.30;;;;;;;;;;5043746;28;20316;-31
2022/10/20 13:54:11;;;;;;;9.97;6.40;;;;;;;;;;5056064;28;20265;-30
2022/10/20 14:03:26;;;;;;;13.27;7.47;;;;;;;;;;5041716;28;20310;-30
2022/10/20 14:06:30;;;;;;;12.93;8.37;;;;;;;;;;5062698;28;20205;-30
2022/10/20 14:08:59;;;;;;;16.33;8.67;;;;;;;;;;5039530;28;20212;-31
2022/10/20 14:11:26;;;;;;;12.33;7.27;;;;;;;;;;5036059;28;20232;-29
2022/10/20 14:13:53;;;;;;;11.87;7.40;;;;;;;;;;5033348;28;20228;-30
2022/10/20 14:16:22;;;;;;;13.67;7.90;;;;;;;;;;5037719;28;20222;-31
2022/10/20 14:19:00;;;;;;;14.07;8.20;;;;;;;;;;5037125;28;20206;-35
2022/10/20 14:21:28;;;;;;;12.83;8.53;;;;;;;;;;5037725;28;20221;-30
2022/10/20 14:23:57;;;;;;;11.57;7.30;;;;;;;;;;5040237;28;20198;-31
2022/10/20 14:26:25;;;;;;;13.20;7.40;;;;;;;;;;5037615;28;20199;-31
2022/10/20 14:28:53;;;;;;;11.60;8.00;;;;;;;;;;5041996;28;20199;-33
2022/10/20 14:31:22;;;;;;;11.57;7.80;;;;;;;;;;5031906;28;20226;-31
2022/10/20 14:33:50;;;;;;;10.07;7.40;;;;;;;;;;5040962;28;20473;-32
2022/10/20 14:36:19;;;;;;;12.43;7.37;;;;;;;;;;5048690;28;20297;-32
2022/10/20 14:38:48;;;;;;;12.10;7.87;;;;;;;;;;5050889;28;20289;-34
2022/10/20 14:41:24;;;;;;;11.90;8.13;;;;;;;;;;5037625;28;20229;-30
2022/10/20 14:43:52;;;;;;;11.40;7.80;;;;;;;;;;5052393;28;20286;-31
2022/10/20 14:46:24;;;;;;;16.43;8.00;;;;;;;;;;5052579;28;20288;-35
2022/10/20 14:48:51;;;;;;;10.23;7.53;;;;;;;;;;5047120;28;20270;-30
2022/10/20 14:51:28;;;;;;;13.33;8.03;;;;;;;;;;5052952;28;20217;-31
2022/10/20 14:54:10;;;;;;;12.83;7.43;;;;;;;;;;5048552;28;20255;-30
2022/10/20 14:56:43;;;;;;;10.20;7.30;;;;;;;;;;5045842;28;20236;-34
2022/10/20 14:59:14;;;;;;;12.83;8.77;;;;;;;;;;5049781;28;20209;-28
2022/10/20 15:01:47;;;;;;;10.83;7.57;;;;;;;;;;5040690;28;20232;-31
2022/10/20 15:04:16;;;;;;;10.30;7.87;;;;;;;;;;5041456;28;20198;-30
2022/10/20 15:06:43;;;;;;;12.57;7.90;;;;;;;;;;5044072;28;20292;-30
2022/10/20 15:09:31;;;;;;;14.57;8.80;;;;;;;;;;5041798;28;20208;-29